sensor_id;sensor_type;location;lat;lon;timestamp;temperature;humidity
68977;SHT31;56029;52.568;13.588;2024-03-08T00:01:57;-1.64;96.03
68977;SHT31;56029;52.568;13.588;2024-03-08T00:04:23;-1.67;96.06
68977;SHT31;56029;52.568;13.588;2024-03-08T00:06:48;-1.72;96.28
68977;SHT31;56029;52.568;13.588;2024-03-08T00:09:14;-1.73;96.12
68977;SHT31;56029;52.568;13.588;2024-03-08T00:11:39;-1.74;96.53
68977;SHT31;56029;52.568;13.588;2024-03-08T00:14:05;-1.76;96.97
68977;SHT31;56029;52.568;13.588;2024-03-08T00:16:31;-1.74;96.78
68977;SHT31;56029;52.568;13.588;2024-03-08T00:18:56;-1.77;97.26
68977;SHT31;56029;52.568;13.588;2024-03-08T00:21:22;-1.82;96.70
68977;SHT31;56029;52.568;13.588;2024-03-08T00:23:47;-1.86;96.71
68977;SHT31;56029;52.568;13.588;2024-03-08T00:26:13;-1.86;96.94
68977;SHT31;56029;52.568;13.588;2024-03-08T00:28:38;-1.86;97.06
68977;SHT31;56029;52.568;13.588;2024-03-08T00:31:04;-1.87;96.90
68977;SHT31;56029;52.568;13.588;2024-03-08T00:33:30;-1.87;96.92
68977;SHT31;56029;52.568;13.588;2024-03-08T00:35:55;-1.84;97.48
68977;SHT31;56029;52.568;13.588;2024-03-08T00:38:21;-1.83;97.43
68977;SHT31;56029;52.568;13.588;2024-03-08T00:40:46;-1.82;97.15
68977;SHT31;56029;52.568;13.588;2024-03-08T00:43:12;-1.80;97.11
68977;SHT31;56029;52.568;13.588;2024-03-08T00:45:38;-1.83;97.00
68977;SHT31;56029;52.568;13.588;2024-03-08T00:48:03;-1.86;97.04
68977;SHT31;56029;52.568;13.588;2024-03-08T00:50:29;-1.87;97.21
68977;SHT31;56029;52.568;13.588;2024-03-08T00:52:55;-1.87;97.68
68977;SHT31;56029;52.568;13.588;2024-03-08T00:55:20;-1.86;98.07
68977;SHT31;56029;52.568;13.588;2024-03-08T00:57:46;-1.83;98.19
68977;SHT31;56029;52.568;13.588;2024-03-08T01:00:12;-1.86;98.37
68977;SHT31;56029;52.568;13.588;2024-03-08T01:02:39;-1.86;98.15
68977;SHT31;56029;52.568;13.588;2024-03-08T01:05:05;-1.91;97.88
68977;SHT31;56029;52.568;13.588;2024-03-08T01:07:30;-1.97;97.95
68977;SHT31;56029;52.568;13.588;2024-03-08T01:09:56;-2.00;97.93
68977;SHT31;56029;52.568;13.588;2024-03-08T01:12:22;-2.01;97.90
68977;SHT31;56029;52.568;13.588;2024-03-08T01:14:47;-2.05;97.73
68977;SHT31;56029;52.568;13.588;2024-03-08T01:17:13;-2.10;97.49
68977;SHT31;56029;52.568;13.588;2024-03-08T01:19:38;-2.11;97.58
68977;SHT31;56029;52.568;13.588;2024-03-08T01:22:04;-2.11;97.87
68977;SHT31;56029;52.568;13.588;2024-03-08T01:24:30;-2.12;98.31
68977;SHT31;56029;52.568;13.588;2024-03-08T01:26:55;-2.14;98.18
68977;SHT31;56029;52.568;13.588;2024-03-08T01:29:21;-2.18;98.13
68977;SHT31;56029;52.568;13.588;2024-03-08T01:31:46;-2.22;98.08
68977;SHT31;56029;52.568;13.588;2024-03-08T01:34:12;-2.28;98.25
68977;SHT31;56029;52.568;13.588;2024-03-08T01:36:38;-2.30;98.17
68977;SHT31;56029;52.568;13.588;2024-03-08T01:39:03;-2.32;98.10
68977;SHT31;56029;52.568;13.588;2024-03-08T01:41:29;-2.38;98.05
68977;SHT31;56029;52.568;13.588;2024-03-08T01:43:54;-2.35;98.44
68977;SHT31;56029;52.568;13.588;2024-03-08T01:46:21;-2.37;98.67
68977;SHT31;56029;52.568;13.588;2024-03-08T01:48:47;-2.42;98.86
68977;SHT31;56029;52.568;13.588;2024-03-08T01:51:14;-2.46;98.75
68977;SHT31;56029;52.568;13.588;2024-03-08T01:53:40;-2.53;98.70
68977;SHT31;56029;52.568;13.588;2024-03-08T01:56:07;-2.53;98.73
68977;SHT31;56029;52.568;13.588;2024-03-08T01:58:33;-2.53;98.61
68977;SHT31;56029;52.568;13.588;2024-03-08T02:00:59;-2.49;98.97
68977;SHT31;56029;52.568;13.588;2024-03-08T02:03:25;-2.48;98.93
68977;SHT31;56029;52.568;13.588;2024-03-08T02:05:50;-2.48;98.74
68977;SHT31;56029;52.568;13.588;2024-03-08T02:08:17;-2.52;98.50
68977;SHT31;56029;52.568;13.588;2024-03-08T02:10:46;-2.58;98.46
68977;SHT31;56029;52.568;13.588;2024-03-08T02:13:12;-2.62;98.99
68977;SHT31;56029;52.568;13.588;2024-03-08T02:15:53;-2.59;99.04
68977;SHT31;56029;52.568;13.588;2024-03-08T02:18:20;-2.58;99.45
68977;SHT31;56029;52.568;13.588;2024-03-08T02:20:56;-2.56;99.47
68977;SHT31;56029;52.568;13.588;2024-03-08T02:23:23;-2.56;99.63
68977;SHT31;56029;52.568;13.588;2024-03-08T02:25:48;-2.48;99.88
68977;SHT31;56029;52.568;13.588;2024-03-08T02:28:14;-2.42;99.99
68977;SHT31;56029;52.568;13.588;2024-03-08T02:30:40;-2.48;99.99
68977;SHT31;56029;52.568;13.588;2024-03-08T02:33:07;-2.49;99.75
68977;SHT31;56029;52.568;13.588;2024-03-08T02:35:33;-2.46;99.96
68977;SHT31;56029;52.568;13.588;2024-03-08T02:37:59;-2.51;99.96
68977;SHT31;56029;52.568;13.588;2024-03-08T02:40:25;-2.51;99.94
68977;SHT31;56029;52.568;13.588;2024-03-08T02:42:51;-2.56;99.63
68977;SHT31;56029;52.568;13.588;2024-03-08T02:45:16;-2.59;99.52
68977;SHT31;56029;52.568;13.588;2024-03-08T02:47:42;-2.62;99.58
68977;SHT31;56029;52.568;13.588;2024-03-08T02:50:08;-2.61;99.65
68977;SHT31;56029;52.568;13.588;2024-03-08T02:52:34;-2.63;99.70
68977;SHT31;56029;52.568;13.588;2024-03-08T02:54:59;-2.66;99.44
68977;SHT31;56029;52.568;13.588;2024-03-08T02:57:25;-2.65;99.81
68977;SHT31;56029;52.568;13.588;2024-03-08T02:59:50;-2.68;99.54
68977;SHT31;56029;52.568;13.588;2024-03-08T03:02:16;-2.65;99.54
68977;SHT31;56029;52.568;13.588;2024-03-08T03:04:42;-2.65;99.36
68977;SHT31;56029;52.568;13.588;2024-03-08T03:07:07;-2.66;99.71
68977;SHT31;56029;52.568;13.588;2024-03-08T03:09:33;-2.68;99.46
68977;SHT31;56029;52.568;13.588;2024-03-08T03:11:59;-2.70;99.66
68977;SHT31;56029;52.568;13.588;2024-03-08T03:14:24;-2.75;99.65
68977;SHT31;56029;52.568;13.588;2024-03-08T03:16:50;-2.77;99.45
68977;SHT31;56029;52.568;13.588;2024-03-08T03:19:16;-2.80;99.81
68977;SHT31;56029;52.568;13.588;2024-03-08T03:21:41;-2.76;99.99
68977;SHT31;56029;52.568;13.588;2024-03-08T03:24:07;-2.76;99.77
68977;SHT31;56029;52.568;13.588;2024-03-08T03:26:33;-2.76;99.55
68977;SHT31;56029;52.568;13.588;2024-03-08T03:28:58;-2.76;99.51
68977;SHT31;56029;52.568;13.588;2024-03-08T03:31:24;-2.73;99.99
68977;SHT31;56029;52.568;13.588;2024-03-08T03:33:49;-2.72;99.99
68977;SHT31;56029;52.568;13.588;2024-03-08T03:36:15;-2.73;99.99
68977;SHT31;56029;52.568;13.588;2024-03-08T03:38:40;-2.70;99.99
68977;SHT31;56029;52.568;13.588;2024-03-08T03:41:06;-2.73;99.88
68977;SHT31;56029;52.568;13.588;2024-03-08T03:43:32;-2.76;99.99
68977;SHT31;56029;52.568;13.588;2024-03-08T03:45:57;-2.75;99.99
68977;SHT31;56029;52.568;13.588;2024-03-08T03:48:23;-2.76;99.99
68977;SHT31;56029;52.568;13.588;2024-03-08T03:50:48;-2.82;99.99
68977;SHT31;56029;52.568;13.588;2024-03-08T03:53:14;-2.87;99.99
68977;SHT31;56029;52.568;13.588;2024-03-08T03:55:40;-2.89;99.99
68977;SHT31;56029;52.568;13.588;2024-03-08T03:58:05;-2.87;99.94
68977;SHT31;56029;52.568;13.588;2024-03-08T04:00:31;-2.93;99.96
68977;SHT31;56029;52.568;13.588;2024-03-08T04:02:56;-2.97;99.67
68977;SHT31;56029;52.568;13.588;2024-03-08T04:05:22;-2.99;99.99
68977;SHT31;56029;52.568;13.588;2024-03-08T04:07:48;-3.01;99.99
68977;SHT31;56029;52.568;13.588;2024-03-08T04:10:13;-3.03;99.99
68977;SHT31;56029;52.568;13.588;2024-03-08T04:12:39;-3.04;99.99
68977;SHT31;56029;52.568;13.588;2024-03-08T04:15:05;-2.99;99.99
68977;SHT31;56029;52.568;13.588;2024-03-08T04:17:30;-2.94;99.99
68977;SHT31;56029;52.568;13.588;2024-03-08T04:19:56;-2.89;99.99
68977;SHT31;56029;52.568;13.588;2024-03-08T04:22:21;-2.86;99.99
68977;SHT31;56029;52.568;13.588;2024-03-08T04:24:47;-2.87;99.99
68977;SHT31;56029;52.568;13.588;2024-03-08T04:27:13;-2.94;99.99
68977;SHT31;56029;52.568;13.588;2024-03-08T04:29:39;-3.00;99.99
68977;SHT31;56029;52.568;13.588;2024-03-08T04:32:05;-3.05;99.99
68977;SHT31;56029;52.568;13.588;2024-03-08T04:34:31;-3.12;99.99
68977;SHT31;56029;52.568;13.588;2024-03-08T04:36:57;-3.24;99.99
68977;SHT31;56029;52.568;13.588;2024-03-08T04:39:23;-3.27;99.99
68977;SHT31;56029;52.568;13.588;2024-03-08T04:41:49;-3.25;99.99
68977;SHT31;56029;52.568;13.588;2024-03-08T04:44:15;-3.24;99.99
68977;SHT31;56029;52.568;13.588;2024-03-08T04:46:41;-3.25;99.99
68977;SHT31;56029;52.568;13.588;2024-03-08T04:49:07;-3.25;99.99
68977;SHT31;56029;52.568;13.588;2024-03-08T04:51:33;-3.25;99.99
68977;SHT31;56029;52.568;13.588;2024-03-08T04:53:58;-3.24;99.99
68977;SHT31;56029;52.568;13.588;2024-03-08T04:56:24;-3.24;99.99
68977;SHT31;56029;52.568;13.588;2024-03-08T04:58:50;-3.21;99.99
68977;SHT31;56029;52.568;13.588;2024-03-08T05:01:15;-3.24;99.99
68977;SHT31;56029;52.568;13.588;2024-03-08T05:03:41;-3.25;99.99
68977;SHT31;56029;52.568;13.588;2024-03-08T05:06:06;-3.24;99.99
68977;SHT31;56029;52.568;13.588;2024-03-08T05:08:32;-3.22;99.99
68977;SHT31;56029;52.568;13.588;2024-03-08T05:10:57;-3.24;99.99
68977;SHT31;56029;52.568;13.588;2024-03-08T05:13:23;-3.14;99.99
68977;SHT31;56029;52.568;13.588;2024-03-08T05:15:49;-3.17;99.99
68977;SHT31;56029;52.568;13.588;2024-03-08T05:18:15;-3.17;99.99
68977;SHT31;56029;52.568;13.588;2024-03-08T05:20:40;-3.21;99.99
68977;SHT31;56029;52.568;13.588;2024-03-08T05:23:07;-3.18;99.99
68977;SHT31;56029;52.568;13.588;2024-03-08T05:25:32;-3.20;99.99
68977;SHT31;56029;52.568;13.588;2024-03-08T05:27:58;-3.18;99.99
68977;SHT31;56029;52.568;13.588;2024-03-08T05:30:23;-3.17;99.99
68977;SHT31;56029;52.568;13.588;2024-03-08T05:32:49;-3.15;99.99
68977;SHT31;56029;52.568;13.588;2024-03-08T05:35:15;-3.17;99.99
68977;SHT31;56029;52.568;13.588;2024-03-08T05:37:40;-3.18;99.99
68977;SHT31;56029;52.568;13.588;2024-03-08T05:40:06;-3.18;99.99
68977;SHT31;56029;52.568;13.588;2024-03-08T05:42:32;-3.17;99.99
68977;SHT31;56029;52.568;13.588;2024-03-08T05:44:58;-3.08;99.99
68977;SHT31;56029;52.568;13.588;2024-03-08T05:47:23;-3.03;99.99
68977;SHT31;56029;52.568;13.588;2024-03-08T05:49:49;-2.93;99.99
68977;SHT31;56029;52.568;13.588;2024-03-08T05:52:15;-2.89;99.99
68977;SHT31;56029;52.568;13.588;2024-03-08T05:54:40;-2.91;99.99
68977;SHT31;56029;52.568;13.588;2024-03-08T05:57:06;-2.90;99.99
68977;SHT31;56029;52.568;13.588;2024-03-08T05:59:31;-2.97;99.99
68977;SHT31;56029;52.568;13.588;2024-03-08T06:01:57;-2.94;99.99
68977;SHT31;56029;52.568;13.588;2024-03-08T06:04:23;-3.00;99.99
68977;SHT31;56029;52.568;13.588;2024-03-08T06:06:48;-2.97;99.99
68977;SHT31;56029;52.568;13.588;2024-03-08T06:09:14;-2.94;99.99
68977;SHT31;56029;52.568;13.588;2024-03-08T06:11:40;-2.97;99.99
68977;SHT31;56029;52.568;13.588;2024-03-08T06:14:05;-2.89;99.99
68977;SHT31;56029;52.568;13.588;2024-03-08T06:16:31;-2.86;99.99
68977;SHT31;56029;52.568;13.588;2024-03-08T06:18:56;-2.83;99.99
68977;SHT31;56029;52.568;13.588;2024-03-08T06:21:25;-2.72;99.99
68977;SHT31;56029;52.568;13.588;2024-03-08T06:23:54;-2.72;99.99
68977;SHT31;56029;52.568;13.588;2024-03-08T06:26:21;-2.63;99.99
68977;SHT31;56029;52.568;13.588;2024-03-08T06:28:47;-2.58;99.99
68977;SHT31;56029;52.568;13.588;2024-03-08T06:31:13;-2.53;99.99
68977;SHT31;56029;52.568;13.588;2024-03-08T06:33:38;-2.48;99.99
68977;SHT31;56029;52.568;13.588;2024-03-08T06:36:04;-2.39;99.99
68977;SHT31;56029;52.568;13.588;2024-03-08T06:38:30;-2.34;99.99
68977;SHT31;56029;52.568;13.588;2024-03-08T06:40:55;-2.27;99.99
68977;SHT31;56029;52.568;13.588;2024-03-08T06:43:21;-2.20;99.99
68977;SHT31;56029;52.568;13.588;2024-03-08T06:45:47;-2.14;99.99
68977;SHT31;56029;52.568;13.588;2024-03-08T06:48:16;-2.05;99.99
68977;SHT31;56029;52.568;13.588;2024-03-08T06:50:46;-1.98;99.99
68977;SHT31;56029;52.568;13.588;2024-03-08T06:53:14;-1.86;99.99
68977;SHT31;56029;52.568;13.588;2024-03-08T06:55:40;-1.72;99.99
68977;SHT31;56029;52.568;13.588;2024-03-08T06:58:06;-1.58;99.99
68977;SHT31;56029;52.568;13.588;2024-03-08T07:00:32;-1.42;99.99
68977;SHT31;56029;52.568;13.588;2024-03-08T07:02:58;-1.27;99.99
68977;SHT31;56029;52.568;13.588;2024-03-08T07:05:23;-1.21;99.99
68977;SHT31;56029;52.568;13.588;2024-03-08T07:07:49;-1.11;99.99
68977;SHT31;56029;52.568;13.588;2024-03-08T07:10:15;-1.04;99.99
68977;SHT31;56029;52.568;13.588;2024-03-08T07:12:41;-0.93;99.99
68977;SHT31;56029;52.568;13.588;2024-03-08T07:15:06;-0.90;99.99
68977;SHT31;56029;52.568;13.588;2024-03-08T07:17:32;-0.77;99.99
68977;SHT31;56029;52.568;13.588;2024-03-08T07:19:58;-0.70;99.99
68977;SHT31;56029;52.568;13.588;2024-03-08T07:22:23;-0.52;99.89
68977;SHT31;56029;52.568;13.588;2024-03-08T07:24:49;-0.48;99.51
68977;SHT31;56029;52.568;13.588;2024-03-08T07:27:14;-0.35;99.33
68977;SHT31;56029;52.568;13.588;2024-03-08T07:29:40;-0.28;99.03
68977;SHT31;56029;52.568;13.588;2024-03-08T07:32:05;-0.08;98.41
68977;SHT31;56029;52.568;13.588;2024-03-08T07:34:31;0.07;97.65
68977;SHT31;56029;52.568;13.588;2024-03-08T07:36:57;0.12;97.77
68977;SHT31;56029;52.568;13.588;2024-03-08T07:39:23;0.19;97.74
68977;SHT31;56029;52.568;13.588;2024-03-08T07:41:49;0.23;97.63
68977;SHT31;56029;52.568;13.588;2024-03-08T07:44:15;0.36;97.42
68977;SHT31;56029;52.568;13.588;2024-03-08T07:46:40;0.42;97.06
68977;SHT31;56029;52.568;13.588;2024-03-08T07:49:06;0.58;95.76
68977;SHT31;56029;52.568;13.588;2024-03-08T07:51:31;0.65;95.42
68977;SHT31;56029;52.568;13.588;2024-03-08T07:53:57;0.77;95.53
68977;SHT31;56029;52.568;13.588;2024-03-08T07:56:23;0.81;95.51
68977;SHT31;56029;52.568;13.588;2024-03-08T07:58:48;0.89;94.82
68977;SHT31;56029;52.568;13.588;2024-03-08T08:01:17;1.01;94.76
68977;SHT31;56029;52.568;13.588;2024-03-08T08:03:44;1.08;94.73
68977;SHT31;56029;52.568;13.588;2024-03-08T08:06:09;1.21;94.15
68977;SHT31;56029;52.568;13.588;2024-03-08T08:08:35;1.29;93.94
68977;SHT31;56029;52.568;13.588;2024-03-08T08:11:01;1.46;93.01
68977;SHT31;56029;52.568;13.588;2024-03-08T08:13:26;1.53;92.87
68977;SHT31;56029;52.568;13.588;2024-03-08T08:15:54;1.64;92.57
68977;SHT31;56029;52.568;13.588;2024-03-08T08:18:20;1.74;92.28
68977;SHT31;56029;52.568;13.588;2024-03-08T08:20:45;1.81;92.00
68977;SHT31;56029;52.568;13.588;2024-03-08T08:23:11;1.91;92.12
68977;SHT31;56029;52.568;13.588;2024-03-08T08:25:39;2.01;91.08
68977;SHT31;56029;52.568;13.588;2024-03-08T08:28:05;2.12;91.24
68977;SHT31;56029;52.568;13.588;2024-03-08T08:30:31;2.31;89.93
68977;SHT31;56029;52.568;13.588;2024-03-08T08:32:59;2.38;89.87
68977;SHT31;56029;52.568;13.588;2024-03-08T08:35:24;2.43;90.01
68977;SHT31;56029;52.568;13.588;2024-03-08T08:37:50;2.50;89.73
68977;SHT31;56029;52.568;13.588;2024-03-08T08:40:16;2.63;88.91
68977;SHT31;56029;52.568;13.588;2024-03-08T08:42:43;2.70;88.18
68977;SHT31;56029;52.568;13.588;2024-03-08T08:45:09;2.81;88.55
68977;SHT31;56029;52.568;13.588;2024-03-08T08:47:37;2.90;87.81
68977;SHT31;56029;52.568;13.588;2024-03-08T08:50:03;3.04;86.94
68977;SHT31;56029;52.568;13.588;2024-03-08T08:52:30;3.08;86.90
68977;SHT31;56029;52.568;13.588;2024-03-08T08:54:56;3.22;86.20
68977;SHT31;56029;52.568;13.588;2024-03-08T08:57:21;3.29;85.01
68977;SHT31;56029;52.568;13.588;2024-03-08T08:59:47;3.32;84.68
68977;SHT31;56029;52.568;13.588;2024-03-08T09:02:13;3.45;84.51
68977;SHT31;56029;52.568;13.588;2024-03-08T09:04:38;3.54;84.83
68977;SHT31;56029;52.568;13.588;2024-03-08T09:07:04;3.59;84.48
68977;SHT31;56029;52.568;13.588;2024-03-08T09:09:29;3.73;82.69
68977;SHT31;56029;52.568;13.588;2024-03-08T09:11:55;3.78;82.80
68977;SHT31;56029;52.568;13.588;2024-03-08T09:14:20;3.80;82.70
68977;SHT31;56029;52.568;13.588;2024-03-08T09:16:46;3.97;82.66
68977;SHT31;56029;52.568;13.588;2024-03-08T09:19:12;4.10;82.32
68977;SHT31;56029;52.568;13.588;2024-03-08T09:21:38;4.08;80.49
68977;SHT31;56029;52.568;13.588;2024-03-08T09:24:04;4.24;80.19
68977;SHT31;56029;52.568;13.588;2024-03-08T09:26:30;4.24;79.73
68977;SHT31;56029;52.568;13.588;2024-03-08T09:28:55;4.27;80.60
68977;SHT31;56029;52.568;13.588;2024-03-08T09:31:22;4.38;79.94
68977;SHT31;56029;52.568;13.588;2024-03-08T09:33:57;4.49;78.45
68977;SHT31;56029;52.568;13.588;2024-03-08T09:36:23;4.54;78.75
68977;SHT31;56029;52.568;13.588;2024-03-08T09:38:48;4.58;78.18
68977;SHT31;56029;52.568;13.588;2024-03-08T09:41:14;4.66;77.42
68977;SHT31;56029;52.568;13.588;2024-03-08T09:43:40;4.73;77.04
68977;SHT31;56029;52.568;13.588;2024-03-08T09:46:07;4.76;77.11
68977;SHT31;56029;52.568;13.588;2024-03-08T09:48:33;4.89;77.45
68977;SHT31;56029;52.568;13.588;2024-03-08T09:50:59;4.92;75.73
68977;SHT31;56029;52.568;13.588;2024-03-08T09:53:24;5.00;75.92
68977;SHT31;56029;52.568;13.588;2024-03-08T09:55:50;5.05;75.13
68977;SHT31;56029;52.568;13.588;2024-03-08T09:58:16;5.06;75.23
68977;SHT31;56029;52.568;13.588;2024-03-08T10:00:42;5.15;74.72
68977;SHT31;56029;52.568;13.588;2024-03-08T10:03:07;5.19;74.35
68977;SHT31;56029;52.568;13.588;2024-03-08T10:05:33;5.17;75.36
68977;SHT31;56029;52.568;13.588;2024-03-08T10:07:58;5.27;74.99
68977;SHT31;56029;52.568;13.588;2024-03-08T10:10:24;5.26;74.33
68977;SHT31;56029;52.568;13.588;2024-03-08T10:12:50;5.33;73.63
68977;SHT31;56029;52.568;13.588;2024-03-08T10:15:17;5.30;74.78
68977;SHT31;56029;52.568;13.588;2024-03-08T10:17:42;5.40;74.52
68977;SHT31;56029;52.568;13.588;2024-03-08T10:20:18;5.44;74.21
68977;SHT31;56029;52.568;13.588;2024-03-08T10:22:44;5.52;73.93
68977;SHT31;56029;52.568;13.588;2024-03-08T10:25:11;5.64;74.06
68977;SHT31;56029;52.568;13.588;2024-03-08T10:27:38;5.65;73.68
68977;SHT31;56029;52.568;13.588;2024-03-08T10:30:13;5.68;73.24
68977;SHT31;56029;52.568;13.588;2024-03-08T10:32:39;5.74;72.76
68977;SHT31;56029;52.568;13.588;2024-03-08T10:35:06;5.84;72.05
68977;SHT31;56029;52.568;13.588;2024-03-08T10:37:31;5.89;71.94
68977;SHT31;56029;52.568;13.588;2024-03-08T10:40:03;5.92;71.98
68977;SHT31;56029;52.568;13.588;2024-03-08T10:42:28;6.01;71.18
68977;SHT31;56029;52.568;13.588;2024-03-08T10:45:06;6.13;71.15
68977;SHT31;56029;52.568;13.588;2024-03-08T10:47:40;6.29;70.66
68977;SHT31;56029;52.568;13.588;2024-03-08T10:50:18;6.30;70.08
68977;SHT31;56029;52.568;13.588;2024-03-08T10:52:44;6.27;69.37
68977;SHT31;56029;52.568;13.588;2024-03-08T10:55:12;6.37;69.89
68977;SHT31;56029;52.568;13.588;2024-03-08T10:57:38;6.45;70.43
68977;SHT31;56029;52.568;13.588;2024-03-08T11:00:06;6.54;69.40
68977;SHT31;56029;52.568;13.588;2024-03-08T11:02:32;6.57;68.23
68977;SHT31;56029;52.568;13.588;2024-03-08T11:04:58;6.54;67.65
68977;SHT31;56029;52.568;13.588;2024-03-08T11:07:24;6.57;67.74
68977;SHT31;56029;52.568;13.588;2024-03-08T11:09:50;6.60;68.95
68977;SHT31;56029;52.568;13.588;2024-03-08T11:12:28;6.73;68.90
68977;SHT31;56029;52.568;13.588;2024-03-08T11:14:54;6.82;70.69
68977;SHT31;56029;52.568;13.588;2024-03-08T11:17:40;6.82;69.71
68977;SHT31;56029;52.568;13.588;2024-03-08T11:20:13;6.84;69.07
68977;SHT31;56029;52.568;13.588;2024-03-08T11:22:39;6.82;68.45
68977;SHT31;56029;52.568;13.588;2024-03-08T11:25:05;6.80;68.08
68977;SHT31;56029;52.568;13.588;2024-03-08T11:27:33;6.88;69.01
68977;SHT31;56029;52.568;13.588;2024-03-08T11:30:04;6.95;67.71
68977;SHT31;56029;52.568;13.588;2024-03-08T11:32:30;7.01;67.22
68977;SHT31;56029;52.568;13.588;2024-03-08T11:34:56;6.98;67.75
68977;SHT31;56029;52.568;13.588;2024-03-08T11:37:21;6.96;68.73
68977;SHT31;56029;52.568;13.588;2024-03-08T11:42:14;7.01;68.32
68977;SHT31;56029;52.568;13.588;2024-03-08T11:44:40;7.13;68.31
68977;SHT31;56029;52.568;13.588;2024-03-08T11:47:09;7.08;68.85
68977;SHT31;56029;52.568;13.588;2024-03-08T11:49:35;7.18;70.28
68977;SHT31;56029;52.568;13.588;2024-03-08T11:52:00;7.29;67.96
68977;SHT31;56029;52.568;13.588;2024-03-08T11:54:26;7.32;66.25
68977;SHT31;56029;52.568;13.588;2024-03-08T11:56:52;7.43;65.22
68977;SHT31;56029;52.568;13.588;2024-03-08T11:59:17;7.44;65.95
68977;SHT31;56029;52.568;13.588;2024-03-08T12:01:43;7.50;64.77
68977;SHT31;56029;52.568;13.588;2024-03-08T12:04:12;7.52;64.42
68977;SHT31;56029;52.568;13.588;2024-03-08T12:06:39;7.42;64.59
68977;SHT31;56029;52.568;13.588;2024-03-08T12:09:11;7.47;65.46
68977;SHT31;56029;52.568;13.588;2024-03-08T12:11:37;7.32;65.61
68977;SHT31;56029;52.568;13.588;2024-03-08T12:14:03;7.33;64.84
68977;SHT31;56029;52.568;13.588;2024-03-08T12:16:29;7.36;64.00
68977;SHT31;56029;52.568;13.588;2024-03-08T12:18:55;7.47;65.28
68977;SHT31;56029;52.568;13.588;2024-03-08T12:21:21;7.54;64.30
68977;SHT31;56029;52.568;13.588;2024-03-08T12:23:46;7.57;65.58
68977;SHT31;56029;52.568;13.588;2024-03-08T12:26:14;7.57;65.21
68977;SHT31;56029;52.568;13.588;2024-03-08T12:28:43;7.60;65.06
68977;SHT31;56029;52.568;13.588;2024-03-08T12:31:11;7.64;64.53
68977;SHT31;56029;52.568;13.588;2024-03-08T12:33:55;7.71;64.87
68977;SHT31;56029;52.568;13.588;2024-03-08T12:36:20;7.69;65.32
68977;SHT31;56029;52.568;13.588;2024-03-08T12:38:46;7.70;65.06
68977;SHT31;56029;52.568;13.588;2024-03-08T12:41:12;7.64;65.31
68977;SHT31;56029;52.568;13.588;2024-03-08T12:43:38;7.70;66.12
68977;SHT31;56029;52.568;13.588;2024-03-08T12:46:03;7.73;65.93
68977;SHT31;56029;52.568;13.588;2024-03-08T12:48:34;7.82;65.68
68977;SHT31;56029;52.568;13.588;2024-03-08T12:50:59;7.73;65.13
68977;SHT31;56029;52.568;13.588;2024-03-08T12:53:25;7.82;64.75
68977;SHT31;56029;52.568;13.588;2024-03-08T12:55:51;7.74;64.65
68977;SHT31;56029;52.568;13.588;2024-03-08T12:58:16;7.75;65.51
68977;SHT31;56029;52.568;13.588;2024-03-08T13:00:42;7.84;66.63
68977;SHT31;56029;52.568;13.588;2024-03-08T13:03:08;7.84;65.00
68977;SHT31;56029;52.568;13.588;2024-03-08T13:05:33;7.71;64.61
68977;SHT31;56029;52.568;13.588;2024-03-08T13:07:59;7.75;65.58
68977;SHT31;56029;52.568;13.588;2024-03-08T13:10:25;7.91;65.92
68977;SHT31;56029;52.568;13.588;2024-03-08T13:12:50;8.01;65.67
68977;SHT31;56029;52.568;13.588;2024-03-08T13:15:16;8.05;64.98
68977;SHT31;56029;52.568;13.588;2024-03-08T13:17:42;8.01;65.41
68977;SHT31;56029;52.568;13.588;2024-03-08T13:20:08;7.98;66.79
68977;SHT31;56029;52.568;13.588;2024-03-08T13:22:34;8.05;66.15
68977;SHT31;56029;52.568;13.588;2024-03-08T13:24:59;8.08;66.44
68977;SHT31;56029;52.568;13.588;2024-03-08T13:27:25;8.13;66.54
68977;SHT31;56029;52.568;13.588;2024-03-08T13:29:50;8.12;65.95
68977;SHT31;56029;52.568;13.588;2024-03-08T13:32:16;8.16;65.90
68977;SHT31;56029;52.568;13.588;2024-03-08T13:34:43;8.16;66.25
68977;SHT31;56029;52.568;13.588;2024-03-08T13:37:09;8.22;67.50
68977;SHT31;56029;52.568;13.588;2024-03-08T13:39:36;8.26;66.55
68977;SHT31;56029;52.568;13.588;2024-03-08T13:42:02;8.16;65.78
68977;SHT31;56029;52.568;13.588;2024-03-08T13:44:27;8.03;65.65
68977;SHT31;56029;52.568;13.588;2024-03-08T13:46:53;8.09;65.98
68977;SHT31;56029;52.568;13.588;2024-03-08T13:49:18;8.15;66.10
68977;SHT31;56029;52.568;13.588;2024-03-08T13:51:44;8.21;66.11
68977;SHT31;56029;52.568;13.588;2024-03-08T13:54:09;8.29;67.44
68977;SHT31;56029;52.568;13.588;2024-03-08T13:56:35;8.35;65.92
68977;SHT31;56029;52.568;13.588;2024-03-08T13:59:01;8.33;65.16
68977;SHT31;56029;52.568;13.588;2024-03-08T14:01:26;8.32;65.98
68977;SHT31;56029;52.568;13.588;2024-03-08T14:03:52;8.28;64.88
68977;SHT31;56029;52.568;13.588;2024-03-08T14:06:17;8.33;63.72
68977;SHT31;56029;52.568;13.588;2024-03-08T14:08:43;8.35;64.80
68977;SHT31;56029;52.568;13.588;2024-03-08T14:11:09;8.33;64.19
68977;SHT31;56029;52.568;13.588;2024-03-08T14:13:34;8.38;64.37
68977;SHT31;56029;52.568;13.588;2024-03-08T14:16:00;8.39;64.03
68977;SHT31;56029;52.568;13.588;2024-03-08T14:18:25;8.42;64.36
68977;SHT31;56029;52.568;13.588;2024-03-08T14:20:51;8.39;63.22
68977;SHT31;56029;52.568;13.588;2024-03-08T14:23:16;8.39;64.35
68977;SHT31;56029;52.568;13.588;2024-03-08T14:25:42;8.45;63.33
68977;SHT31;56029;52.568;13.588;2024-03-08T14:28:08;8.45;62.88
68977;SHT31;56029;52.568;13.588;2024-03-08T14:30:34;8.46;63.92
68977;SHT31;56029;52.568;13.588;2024-03-08T14:33:03;8.43;62.81
68977;SHT31;56029;52.568;13.588;2024-03-08T14:35:29;8.42;63.73
68977;SHT31;56029;52.568;13.588;2024-03-08T14:37:55;8.48;63.40
68977;SHT31;56029;52.568;13.588;2024-03-08T14:40:21;8.40;62.83
68977;SHT31;56029;52.568;13.588;2024-03-08T14:42:47;8.42;63.33
68977;SHT31;56029;52.568;13.588;2024-03-08T14:45:12;8.40;64.68
68977;SHT31;56029;52.568;13.588;2024-03-08T14:47:38;8.50;63.24
68977;SHT31;56029;52.568;13.588;2024-03-08T14:50:04;8.54;61.87
68977;SHT31;56029;52.568;13.588;2024-03-08T14:52:29;8.54;63.42
68977;SHT31;56029;52.568;13.588;2024-03-08T14:54:55;8.53;63.00
68977;SHT31;56029;52.568;13.588;2024-03-08T14:57:21;8.49;63.68
68977;SHT31;56029;52.568;13.588;2024-03-08T14:59:47;8.53;63.96
68977;SHT31;56029;52.568;13.588;2024-03-08T15:02:12;8.56;64.28
68977;SHT31;56029;52.568;13.588;2024-03-08T15:04:38;8.56;63.60
68977;SHT31;56029;52.568;13.588;2024-03-08T15:07:03;8.59;62.58
68977;SHT31;56029;52.568;13.588;2024-03-08T15:09:29;8.53;62.86
68977;SHT31;56029;52.568;13.588;2024-03-08T15:11:55;8.54;61.86
68977;SHT31;56029;52.568;13.588;2024-03-08T15:14:20;8.53;62.35
68977;SHT31;56029;52.568;13.588;2024-03-08T15:16:46;8.54;63.04
68977;SHT31;56029;52.568;13.588;2024-03-08T15:19:12;8.54;62.58